sensor_id;sensor_type;location;lat;lon;timestamp;P1;durP1;ratioP1;P2;durP2;ratioP2
30133;SDS011;16946;49.984;10.672;2023-02-08T00:00:27;11.70;;;8.70;;
30133;SDS011;16946;49.984;10.672;2023-02-08T00:00:58;10.47;;;8.27;;
30133;SDS011;16946;49.984;10.672;2023-02-08T00:01:28;11.77;;;9.17;;
30133;SDS011;16946;49.984;10.672;2023-02-08T00:01:59;11.20;;;8.73;;
30133;SDS011;16946;49.984;10.672;2023-02-08T00:02:29;11.73;;;8.60;;
30133;SDS011;16946;49.984;10.672;2023-02-08T00:03:00;9.97;;;8.10;;
30133;SDS011;16946;49.984;10.672;2023-02-08T00:03:30;11.87;;;8.73;;
30133;SDS011;16946;49.984;10.672;2023-02-08T00:04:01;9.97;;;8.17;;
30133;SDS011;16946;49.984;10.672;2023-02-08T00:04:31;11.13;;;9.20;;
30133;SDS011;16946;49.984;10.672;2023-02-08T00:05:02;11.80;;;9.70;;
30133;SDS011;16946;49.984;10.672;2023-02-08T00:05:33;11.77;;;9.33;;
30133;SDS011;16946;49.984;10.672;2023-02-08T00:06:04;11.80;;;8.37;;
30133;SDS011;16946;49.984;10.672;2023-02-08T00:06:35;12.38;;;8.98;;
30133;SDS011;16946;49.984;10.672;2023-02-08T00:07:06;11.00;;;8.97;;
30133;SDS011;16946;49.984;10.672;2023-02-08T00:07:36;11.10;;;8.93;;
30133;SDS011;16946;49.984;10.672;2023-02-08T00:08:07;12.40;;;9.43;;
30133;SDS011;16946;49.984;10.672;2023-02-08T00:08:38;12.70;;;8.90;;
30133;SDS011;16946;49.984;10.672;2023-02-08T00:09:09;12.02;;;9.10;;
30133;SDS011;16946;49.984;10.672;2023-02-08T00:09:39;11.97;;;9.30;;
30133;SDS011;16946;49.984;10.672;2023-02-08T00:10:10;11.87;;;8.70;;
30133;SDS011;16946;49.984;10.672;2023-02-08T00:10:40;11.47;;;9.03;;
30133;SDS011;16946;49.984;10.672;2023-02-08T00:11:12;11.38;;;9.05;;
30133;SDS011;16946;49.984;10.672;2023-02-08T00:11:42;10.93;;;9.10;;
30133;SDS011;16946;49.984;10.672;2023-02-08T00:12:13;12.37;;;9.10;;
30133;SDS011;16946;49.984;10.672;2023-02-08T00:12:43;11.63;;;9.00;;
30133;SDS011;16946;49.984;10.672;2023-02-08T00:13:14;12.87;;;9.23;;
30133;SDS011;16946;49.984;10.672;2023-02-08T00:13:44;12.13;;;9.43;;
30133;SDS011;16946;49.984;10.672;2023-02-08T00:14:15;12.17;;;9.47;;
30133;SDS011;16946;49.984;10.672;2023-02-08T00:14:46;13.87;;;9.73;;
30133;SDS011;16946;49.984;10.672;2023-02-08T00:15:17;16.17;;;9.73;;
30133;SDS011;16946;49.984;10.672;2023-02-08T00:15:48;14.18;;;8.98;;
30133;SDS011;16946;49.984;10.672;2023-02-08T00:16:21;12.35;;;9.60;;
30133;SDS011;16946;49.984;10.672;2023-02-08T00:16:52;11.83;;;9.43;;
30133;SDS011;16946;49.984;10.672;2023-02-08T00:17:22;11.93;;;9.47;;
30133;SDS011;16946;49.984;10.672;2023-02-08T00:17:53;13.17;;;9.17;;
30133;SDS011;16946;49.984;10.672;2023-02-08T00:18:24;11.83;;;9.13;;
30133;SDS011;16946;49.984;10.672;2023-02-08T00:18:54;16.07;;;9.90;;
30133;SDS011;16946;49.984;10.672;2023-02-08T00:19:25;13.57;;;10.20;;
30133;SDS011;16946;49.984;10.672;2023-02-08T00:19:55;12.10;;;9.70;;
30133;SDS011;16946;49.984;10.672;2023-02-08T00:20:26;12.57;;;9.47;;
30133;SDS011;16946;49.984;10.672;2023-02-08T00:20:57;11.93;;;9.37;;
30133;SDS011;16946;49.984;10.672;2023-02-08T00:21:27;13.70;;;9.00;;
30133;SDS011;16946;49.984;10.672;2023-02-08T00:21:58;12.57;;;9.80;;
30133;SDS011;16946;49.984;10.672;2023-02-08T00:22:28;11.83;;;9.73;;
30133;SDS011;16946;49.984;10.672;2023-02-08T00:22:59;11.27;;;9.30;;
30133;SDS011;16946;49.984;10.672;2023-02-08T00:23:29;13.07;;;9.20;;
30133;SDS011;16946;49.984;10.672;2023-02-08T00:24:00;12.10;;;9.60;;
30133;SDS011;16946;49.984;10.672;2023-02-08T00:24:30;11.27;;;9.43;;
30133;SDS011;16946;49.984;10.672;2023-02-08T00:25:02;12.45;;;9.95;;
30133;SDS011;16946;49.984;10.672;2023-02-08T00:25:32;11.37;;;9.40;;
30133;SDS011;16946;49.984;10.672;2023-02-08T00:26:04;12.13;;;9.05;;
30133;SDS011;16946;49.984;10.672;2023-02-08T00:26:34;12.53;;;9.70;;
30133;SDS011;16946;49.984;10.672;2023-02-08T00:27:05;13.93;;;10.03;;
30133;SDS011;16946;49.984;10.672;2023-02-08T00:27:35;13.83;;;10.57;;
30133;SDS011;16946;49.984;10.672;2023-02-08T00:28:06;12.90;;;10.37;;
30133;SDS011;16946;49.984;10.672;2023-02-08T00:28:41;13.15;;;10.63;;
30133;SDS011;16946;49.984;10.672;2023-02-08T00:29:12;13.32;;;10.15;;
30133;SDS011;16946;49.984;10.672;2023-02-08T00:29:42;15.53;;;10.63;;
30133;SDS011;16946;49.984;10.672;2023-02-08T00:30:13;15.53;;;10.30;;
30133;SDS011;16946;49.984;10.672;2023-02-08T00:30:43;12.07;;;9.17;;
30133;SDS011;16946;49.984;10.672;2023-02-08T00:31:14;12.10;;;9.63;;
30133;SDS011;16946;49.984;10.672;2023-02-08T00:31:45;13.47;;;10.77;;
30133;SDS011;16946;49.984;10.672;2023-02-08T00:32:15;14.37;;;10.10;;
30133;SDS011;16946;49.984;10.672;2023-02-08T00:32:46;11.30;;;9.60;;
30133;SDS011;16946;49.984;10.672;2023-02-08T00:33:16;12.90;;;9.53;;
30133;SDS011;16946;49.984;10.672;2023-02-08T00:33:47;12.40;;;10.00;;
30133;SDS011;16946;49.984;10.672;2023-02-08T00:34:17;13.83;;;10.87;;
30133;SDS011;16946;49.984;10.672;2023-02-08T00:34:48;12.77;;;9.47;;
30133;SDS011;16946;49.984;10.672;2023-02-08T00:35:18;13.57;;;10.20;;
30133;SDS011;16946;49.984;10.672;2023-02-08T00:35:49;11.67;;;9.43;;
30133;SDS011;16946;49.984;10.672;2023-02-08T00:36:19;17.17;;;10.33;;
30133;SDS011;16946;49.984;10.672;2023-02-08T00:36:50;16.20;;;10.17;;
30133;SDS011;16946;49.984;10.672;2023-02-08T00:37:20;12.83;;;9.87;;
30133;SDS011;16946;49.984;10.672;2023-02-08T00:37:51;12.90;;;8.93;;
30133;SDS011;16946;49.984;10.672;2023-02-08T00:38:21;14.00;;;9.90;;
30133;SDS011;16946;49.984;10.672;2023-02-08T00:38:52;11.93;;;9.37;;
30133;SDS011;16946;49.984;10.672;2023-02-08T00:39:22;12.27;;;10.23;;
30133;SDS011;16946;49.984;10.672;2023-02-08T00:39:53;13.50;;;10.10;;
30133;SDS011;16946;49.984;10.672;2023-02-08T00:40:24;13.50;;;9.77;;
30133;SDS011;16946;49.984;10.672;2023-02-08T00:40:55;11.15;;;9.13;;
30133;SDS011;16946;49.984;10.672;2023-02-08T00:41:25;12.37;;;9.97;;
30133;SDS011;16946;49.984;10.672;2023-02-08T00:41:56;13.77;;;9.53;;
30133;SDS011;16946;49.984;10.672;2023-02-08T00:42:27;12.47;;;9.60;;
30133;SDS011;16946;49.984;10.672;2023-02-08T00:42:59;11.98;;;9.27;;
30133;SDS011;16946;49.984;10.672;2023-02-08T00:43:29;12.20;;;9.53;;
30133;SDS011;16946;49.984;10.672;2023-02-08T00:44:00;11.80;;;9.80;;
30133;SDS011;16946;49.984;10.672;2023-02-08T00:44:30;13.80;;;10.30;;
30133;SDS011;16946;49.984;10.672;2023-02-08T00:45:01;12.37;;;9.47;;
30133;SDS011;16946;49.984;10.672;2023-02-08T00:45:32;15.13;;;10.60;;
30133;SDS011;16946;49.984;10.672;2023-02-08T00:46:03;12.65;;;9.45;;
30133;SDS011;16946;49.984;10.672;2023-02-08T00:46:34;12.18;;;9.85;;
30133;SDS011;16946;49.984;10.672;2023-02-08T00:47:04;13.47;;;10.63;;
30133;SDS011;16946;49.984;10.672;2023-02-08T00:47:35;13.70;;;9.67;;
30133;SDS011;16946;49.984;10.672;2023-02-08T00:48:05;12.10;;;9.50;;
30133;SDS011;16946;49.984;10.672;2023-02-08T00:48:36;12.60;;;9.63;;
30133;SDS011;16946;49.984;10.672;2023-02-08T00:49:06;14.00;;;10.37;;
30133;SDS011;16946;49.984;10.672;2023-02-08T00:49:37;15.07;;;11.07;;
30133;SDS011;16946;49.984;10.672;2023-02-08T00:50:08;18.00;;;12.00;;
30133;SDS011;16946;49.984;10.672;2023-02-08T00:50:39;14.85;;;11.27;;
30133;SDS011;16946;49.984;10.672;2023-02-08T00:51:11;15.77;;;12.00;;
30133;SDS011;16946;49.984;10.672;2023-02-08T00:51:42;15.05;;;11.57;;
30133;SDS011;16946;49.984;10.672;2023-02-08T00:52:13;16.57;;;11.63;;
30133;SDS011;16946;49.984;10.672;2023-02-08T00:52:43;14.40;;;11.17;;
30133;SDS011;16946;49.984;10.672;2023-02-08T00:53:14;15.73;;;10.27;;
30133;SDS011;16946;49.984;10.672;2023-02-08T00:53:45;14.70;;;11.00;;
30133;SDS011;16946;49.984;10.672;2023-02-08T00:54:16;14.45;;;10.98;;
30133;SDS011;16946;49.984;10.672;2023-02-08T00:54:48;12.32;;;9.68;;
30133;SDS011;16946;49.984;10.672;2023-02-08T00:55:19;12.50;;;10.40;;
30133;SDS011;16946;49.984;10.672;2023-02-08T00:55:50;12.20;;;9.83;;
30133;SDS011;16946;49.984;10.672;2023-02-08T00:56:21;12.45;;;9.20;;
30133;SDS011;16946;49.984;10.672;2023-02-08T00:56:52;11.87;;;9.47;;
30133;SDS011;16946;49.984;10.672;2023-02-08T00:57:22;13.63;;;9.80;;
30133;SDS011;16946;49.984;10.672;2023-02-08T00:57:53;13.90;;;9.93;;
30133;SDS011;16946;49.984;10.672;2023-02-08T00:58:23;12.47;;;9.13;;
30133;SDS011;16946;49.984;10.672;2023-02-08T00:58:54;11.20;;;9.37;;
30133;SDS011;16946;49.984;10.672;2023-02-08T00:59:25;12.13;;;9.87;;
30133;SDS011;16946;49.984;10.672;2023-02-08T00:59:56;12.15;;;9.80;;
30133;SDS011;16946;49.984;10.672;2023-02-08T01:00:27;12.47;;;9.20;;
30133;SDS011;16946;49.984;10.672;2023-02-08T01:00:57;13.07;;;10.07;;
30133;SDS011;16946;49.984;10.672;2023-02-08T01:01:28;11.90;;;9.03;;
30133;SDS011;16946;49.984;10.672;2023-02-08T01:01:58;12.33;;;9.93;;
30133;SDS011;16946;49.984;10.672;2023-02-08T01:02:29;14.47;;;9.27;;
30133;SDS011;16946;49.984;10.672;2023-02-08T01:03:00;11.83;;;9.17;;
30133;SDS011;16946;49.984;10.672;2023-02-08T01:03:34;11.88;;;9.18;;
30133;SDS011;16946;49.984;10.672;2023-02-08T01:04:07;12.93;;;9.50;;
30133;SDS011;16946;49.984;10.672;2023-02-08T01:04:38;13.73;;;9.43;;
30133;SDS011;16946;49.984;10.672;2023-02-08T01:05:08;10.67;;;8.53;;
30133;SDS011;16946;49.984;10.672;2023-02-08T01:05:39;11.37;;;9.27;;
30133;SDS011;16946;49.984;10.672;2023-02-08T01:06:12;15.80;;;9.50;;
30133;SDS011;16946;49.984;10.672;2023-02-08T01:06:44;11.98;;;9.48;;
30133;SDS011;16946;49.984;10.672;2023-02-08T01:07:15;12.80;;;9.60;;
30133;SDS011;16946;49.984;10.672;2023-02-08T01:07:45;12.83;;;8.90;;
30133;SDS011;16946;49.984;10.672;2023-02-08T01:08:16;12.57;;;9.47;;
30133;SDS011;16946;49.984;10.672;2023-02-08T01:08:48;11.15;;;9.30;;
30133;SDS011;16946;49.984;10.672;2023-02-08T01:09:19;13.60;;;9.57;;
30133;SDS011;16946;49.984;10.672;2023-02-08T01:09:49;11.77;;;9.30;;
30133;SDS011;16946;49.984;10.672;2023-02-08T01:10:20;14.10;;;9.57;;
30133;SDS011;16946;49.984;10.672;2023-02-08T01:10:50;11.40;;;9.20;;
30133;SDS011;16946;49.984;10.672;2023-02-08T01:11:22;11.43;;;8.93;;
30133;SDS011;16946;49.984;10.672;2023-02-08T01:11:54;12.32;;;9.25;;
30133;SDS011;16946;49.984;10.672;2023-02-08T01:12:25;11.37;;;9.20;;
30133;SDS011;16946;49.984;10.672;2023-02-08T01:12:55;13.33;;;9.57;;
30133;SDS011;16946;49.984;10.672;2023-02-08T01:13:26;11.37;;;8.80;;
30133;SDS011;16946;49.984;10.672;2023-02-08T01:13:56;10.97;;;8.90;;
30133;SDS011;16946;49.984;10.672;2023-02-08T01:14:27;11.68;;;8.80;;
30133;SDS011;16946;49.984;10.672;2023-02-08T01:14:58;11.87;;;9.00;;
30133;SDS011;16946;49.984;10.672;2023-02-08T01:15:28;11.93;;;8.93;;
30133;SDS011;16946;49.984;10.672;2023-02-08T01:16:09;11.90;;;9.40;;
30133;SDS011;16946;49.984;10.672;2023-02-08T01:16:41;13.23;;;9.48;;
30133;SDS011;16946;49.984;10.672;2023-02-08T01:17:12;13.03;;;9.47;;
30133;SDS011;16946;49.984;10.672;2023-02-08T01:17:43;11.20;;;8.97;;
30133;SDS011;16946;49.984;10.672;2023-02-08T01:18:13;11.33;;;9.47;;
30133;SDS011;16946;49.984;10.672;2023-02-08T01:18:45;12.20;;;9.63;;
30133;SDS011;16946;49.984;10.672;2023-02-08T01:19:17;11.27;;;9.10;;
30133;SDS011;16946;49.984;10.672;2023-02-08T01:19:47;11.00;;;9.00;;
30133;SDS011;16946;49.984;10.672;2023-02-08T01:20:18;11.10;;;9.17;;
30133;SDS011;16946;49.984;10.672;2023-02-08T01:20:49;12.73;;;9.70;;
30133;SDS011;16946;49.984;10.672;2023-02-08T01:21:21;10.40;;;8.40;;
30133;SDS011;16946;49.984;10.672;2023-02-08T01:21:52;12.18;;;9.00;;
30133;SDS011;16946;49.984;10.672;2023-02-08T01:22:23;12.52;;;9.70;;
30133;SDS011;16946;49.984;10.672;2023-02-08T01:22:54;12.70;;;9.30;;
30133;SDS011;16946;49.984;10.672;2023-02-08T01:23:25;13.20;;;9.80;;
30133;SDS011;16946;49.984;10.672;2023-02-08T01:23:56;12.20;;;8.90;;
30133;SDS011;16946;49.984;10.672;2023-02-08T01:24:27;10.88;;;8.27;;
30133;SDS011;16946;49.984;10.672;2023-02-08T01:24:58;14.03;;;9.13;;
30133;SDS011;16946;49.984;10.672;2023-02-08T01:25:30;14.02;;;10.30;;
30133;SDS011;16946;49.984;10.672;2023-02-08T01:26:00;10.13;;;8.47;;
30133;SDS011;16946;49.984;10.672;2023-02-08T01:26:31;13.55;;;9.85;;
30133;SDS011;16946;49.984;10.672;2023-02-08T01:27:03;11.90;;;9.52;;
30133;SDS011;16946;49.984;10.672;2023-02-08T01:27:33;12.83;;;10.23;;
30133;SDS011;16946;49.984;10.672;2023-02-08T01:28:04;14.20;;;10.37;;
30133;SDS011;16946;49.984;10.672;2023-02-08T01:28:34;11.90;;;9.80;;
30133;SDS011;16946;49.984;10.672;2023-02-08T01:29:05;14.40;;;9.87;;
30133;SDS011;16946;49.984;10.672;2023-02-08T01:29:35;14.30;;;10.37;;
30133;SDS011;16946;49.984;10.672;2023-02-08T01:30:06;13.63;;;9.70;;
30133;SDS011;16946;49.984;10.672;2023-02-08T01:30:37;15.27;;;10.18;;
30133;SDS011;16946;49.984;10.672;2023-02-08T01:31:12;12.50;;;10.07;;
30133;SDS011;16946;49.984;10.672;2023-02-08T01:31:44;12.43;;;9.70;;
30133;SDS011;16946;49.984;10.672;2023-02-08T01:32:15;13.97;;;9.70;;
30133;SDS011;16946;49.984;10.672;2023-02-08T01:32:45;12.87;;;10.00;;
30133;SDS011;16946;49.984;10.672;2023-02-08T01:33:16;12.37;;;10.23;;
30133;SDS011;16946;49.984;10.672;2023-02-08T01:33:47;12.87;;;9.03;;
30133;SDS011;16946;49.984;10.672;2023-02-08T01:34:18;12.98;;;9.43;;
30133;SDS011;16946;49.984;10.672;2023-02-08T01:34:48;12.00;;;9.63;;
30133;SDS011;16946;49.984;10.672;2023-02-08T01:35:19;11.57;;;9.53;;
30133;SDS011;16946;49.984;10.672;2023-02-08T01:35:52;14.20;;;9.73;;
30133;SDS011;16946;49.984;10.672;2023-02-08T01:36:23;11.23;;;9.20;;
30133;SDS011;16946;49.984;10.672;2023-02-08T01:36:55;12.45;;;9.70;;
30133;SDS011;16946;49.984;10.672;2023-02-08T01:37:25;11.23;;;9.13;;
30133;SDS011;16946;49.984;10.672;2023-02-08T01:37:56;11.90;;;9.40;;
30133;SDS011;16946;49.984;10.672;2023-02-08T01:38:26;12.83;;;9.80;;
30133;SDS011;16946;49.984;10.672;2023-02-08T01:38:57;14.80;;;9.53;;
30133;SDS011;16946;49.984;10.672;2023-02-08T01:39:28;12.53;;;10.07;;
30133;SDS011;16946;49.984;10.672;2023-02-08T01:39:58;11.77;;;9.57;;
30133;SDS011;16946;49.984;10.672;2023-02-08T01:40:29;11.90;;;9.00;;
30133;SDS011;16946;49.984;10.672;2023-02-08T01:40:59;12.23;;;9.13;;
30133;SDS011;16946;49.984;10.672;2023-02-08T01:41:31;12.90;;;9.33;;
30133;SDS011;16946;49.984;10.672;2023-02-08T01:42:03;13.35;;;9.73;;
30133;SDS011;16946;49.984;10.672;2023-02-08T01:42:34;12.77;;;10.27;;
30133;SDS011;16946;49.984;10.672;2023-02-08T01:43:08;12.87;;;9.47;;
30133;SDS011;16946;49.984;10.672;2023-02-08T01:45:18;12.60;;;9.45;;
30133;SDS011;16946;49.984;10.672;2023-02-08T01:45:53;12.65;;;9.00;;
30133;SDS011;16946;49.984;10.672;2023-02-08T01:46:23;12.70;;;9.93;;
30133;SDS011;16946;49.984;10.672;2023-02-08T01:46:54;12.87;;;10.07;;
30133;SDS011;16946;49.984;10.672;2023-02-08T01:47:24;13.37;;;10.53;;
30133;SDS011;16946;49.984;10.672;2023-02-08T01:48:01;12.77;;;9.73;;
30133;SDS011;16946;49.984;10.672;2023-02-08T01:48:39;14.57;;;10.27;;
30133;SDS011;16946;49.984;10.672;2023-02-08T01:50:00;12.75;;;9.48;;
30133;SDS011;16946;49.984;10.672;2023-02-08T01:50:34;14.40;;;10.20;;
30133;SDS011;16946;49.984;10.672;2023-02-08T01:51:14;11.27;;;9.30;;
30133;SDS011;16946;49.984;10.672;2023-02-08T01:51:50;12.25;;;10.20;;
30133;SDS011;16946;49.984;10.672;2023-02-08T01:52:24;13.75;;;10.88;;
30133;SDS011;16946;49.984;10.672;2023-02-08T01:52:57;12.82;;;10.43;;
30133;SDS011;16946;49.984;10.672;2023-02-08T01:53:29;12.98;;;10.23;;
30133;SDS011;16946;49.984;10.672;2023-02-08T01:54:03;12.40;;;9.77;;
30133;SDS011;16946;49.984;10.672;2023-02-08T01:54:37;13.43;;;9.98;;
30133;SDS011;16946;49.984;10.672;2023-02-08T01:55:13;12.75;;;10.85;;
30133;SDS011;16946;49.984;10.672;2023-02-08T01:55:48;11.52;;;9.93;;
30133;SDS011;16946;49.984;10.672;2023-02-08T01:56:26;11.63;;;9.98;;
30133;SDS011;16946;49.984;10.672;2023-02-08T01:57:00;13.95;;;10.25;;
30133;SDS011;16946;49.984;10.672;2023-02-08T01:57:31;11.55;;;9.15;;
30133;SDS011;16946;49.984;10.672;2023-02-08T01:58:02;12.13;;;9.53;;
30133;SDS011;16946;49.984;10.672;2023-02-08T01:58:37;13.40;;;9.88;;
30133;SDS011;16946;49.984;10.672;2023-02-08T01:59:15;12.05;;;9.48;;
30133;SDS011;16946;49.984;10.672;2023-02-08T02:00:22;14.40;;;10.63;;
30133;SDS011;16946;49.984;10.672;2023-02-08T02:00:47;14.18;;;10.65;;
30133;SDS011;16946;49.984;10.672;2023-02-08T02:01:18;11.70;;;9.80;;
30133;SDS011;16946;49.984;10.672;2023-02-08T02:01:50;13.50;;;10.20;;
30133;SDS011;16946;49.984;10.672;2023-02-08T02:02:21;16.33;;;10.55;;
30133;SDS011;16946;49.984;10.672;2023-02-08T02:02:53;11.40;;;9.48;;
30133;SDS011;16946;49.984;10.672;2023-02-08T02:03:25;12.02;;;9.93;;
30133;SDS011;16946;49.984;10.672;2023-02-08T02:03:56;13.33;;;10.47;;
30133;SDS011;16946;49.984;10.672;2023-02-08T02:04:31;11.77;;;9.95;;
30133;SDS011;16946;49.984;10.672;2023-02-08T02:05:01;13.10;;;10.17;;
30133;SDS011;16946;49.984;10.672;2023-02-08T02:05:42;11.38;;;9.80;;
30133;SDS011;16946;49.984;10.672;2023-02-08T02:06:20;14.18;;;10.10;;
30133;SDS011;16946;49.984;10.672;2023-02-08T02:06:55;12.95;;;9.90;;
30133;SDS011;16946;49.984;10.672;2023-02-08T02:07:28;12.55;;;9.63;;
30133;SDS011;16946;49.984;10.672;2023-02-08T02:07:59;14.88;;;10.00;;
30133;SDS011;16946;49.984;10.672;2023-02-08T02:08:30;12.80;;;9.77;;
30133;SDS011;16946;49.984;10.672;2023-02-08T02:10:04;14.07;;;10.07;;
30133;SDS011;16946;49.984;10.672;2023-02-08T02:10:39;13.27;;;9.27;;
30133;SDS011;16946;49.984;10.672;2023-02-08T02:11:11;13.30;;;9.43;;
30133;SDS011;16946;49.984;10.672;2023-02-08T02:11:42;12.82;;;9.27;;
30133;SDS011;16946;49.984;10.672;2023-02-08T02:12:13;12.60;;;10.23;;
30133;SDS011;16946;49.984;10.672;2023-02-08T02:12:45;14.43;;;10.15;;
30133;SDS011;16946;49.984;10.672;2023-02-08T02:13:18;13.00;;;9.80;;
30133;SDS011;16946;49.984;10.672;2023-02-08T02:13:51;13.07;;;9.65;;
30133;SDS011;16946;49.984;10.672;2023-02-08T02:14:23;11.88;;;9.52;;
30133;SDS011;16946;49.984;10.672;2023-02-08T02:14:53;13.60;;;10.00;;
30133;SDS011;16946;49.984;10.672;2023-02-08T02:15:25;14.73;;;10.60;;
30133;SDS011;16946;49.984;10.672;2023-02-08T02:15:55;13.40;;;10.03;;
30133;SDS011;16946;49.984;10.672;2023-02-08T02:16:26;13.33;;;9.80;;
30133;SDS011;16946;49.984;10.672;2023-02-08T02:16:58;13.53;;;9.80;;
30133;SDS011;16946;49.984;10.672;2023-02-08T02:17:29;14.55;;;9.85;;
30133;SDS011;16946;49.984;10.672;2023-02-08T02:18:00;12.93;;;9.83;;
30133;SDS011;16946;49.984;10.672;2023-02-08T02:18:33;14.02;;;9.75;;
30133;SDS011;16946;49.984;10.672;2023-02-08T02:19:04;12.23;;;9.57;;
30133;SDS011;16946;49.984;10.672;2023-02-08T02:20:48;10.93;;;9.27;;
30133;SDS011;16946;49.984;10.672;2023-02-08T02:26:26;15.00;;;10.85;;
30133;SDS011;16946;49.984;10.672;2023-02-08T02:27:39;14.35;;;10.75;;
30133;SDS011;16946;49.984;10.672;2023-02-08T02:30:18;12.75;;;10.02;;
30133;SDS011;16946;49.984;10.672;2023-02-08T02:31:32;14.77;;;11.20;;
30133;SDS011;16946;49.984;10.672;2023-02-08T02:32:25;14.93;;;10.65;;
30133;SDS011;16946;49.984;10.672;2023-02-08T02:35:05;15.35;;;11.38;;
30133;SDS011;16946;49.984;10.672;2023-02-08T02:36:10;17.17;;;11.68;;
30133;SDS011;16946;49.984;10.672;2023-02-08T02:37:46;14.60;;;10.88;;
30133;SDS011;16946;49.984;10.672;2023-02-08T02:39:40;14.68;;;11.25;;
30133;SDS011;16946;49.984;10.672;2023-02-08T02:40:19;15.02;;;10.75;;
30133;SDS011;16946;49.984;10.672;2023-02-08T02:42:49;15.25;;;11.35;;
30133;SDS011;16946;49.984;10.672;2023-02-08T02:43:51;13.55;;;10.80;;
30133;SDS011;16946;49.984;10.672;2023-02-08T02:44:36;14.05;;;10.10;;
30133;SDS011;16946;49.984;10.672;2023-02-08T02:45:25;13.32;;;10.20;;
30133;SDS011;16946;49.984;10.672;2023-02-08T02:46:12;14.40;;;10.45;;
30133;SDS011;16946;49.984;10.672;2023-02-08T02:47:11;14.02;;;10.95;;
30133;SDS011;16946;49.984;10.672;2023-02-08T02:49:31;13.15;;;10.30;;
30133;SDS011;16946;49.984;10.672;2023-02-08T02:50:11;15.65;;;10.57;;
30133;SDS011;16946;49.984;10.672;2023-02-08T02:50:53;15.98;;;10.48;;
30133;SDS011;16946;49.984;10.672;2023-02-08T02:51:30;13.20;;;10.20;;
30133;SDS011;16946;49.984;10.672;2023-02-08T02:52:33;14.30;;;10.85;;
30133;SDS011;16946;49.984;10.672;2023-02-08T02:54:28;14.30;;;10.95;;
30133;SDS011;16946;49.984;10.672;2023-02-08T02:55:06;12.80;;;10.00;;
30133;SDS011;16946;49.984;10.672;2023-02-08T02:55:42;15.73;;;11.32;;
30133;SDS011;16946;49.984;10.672;2023-02-08T02:56:18;14.38;;;10.70;;
30133;SDS011;16946;49.984;10.672;2023-02-08T02:56:54;17.35;;;11.88;;
30133;SDS011;16946;49.984;10.672;2023-02-08T02:57:30;13.05;;;10.30;;
30133;SDS011;16946;49.984;10.672;2023-02-08T02:58:02;14.88;;;10.10;;
30133;SDS011;16946;49.984;10.672;2023-02-08T02:58:34;15.82;;;10.77;;
30133;SDS011;16946;49.984;10.672;2023-02-08T02:59:07;14.55;;;10.70;;
30133;SDS011;16946;49.984;10.672;2023-02-08T02:59:39;14.10;;;10.77;;
30133;SDS011;16946;49.984;10.672;2023-02-08T03:00:15;15.45;;;11.00;;
30133;SDS011;16946;49.984;10.672;2023-02-08T03:00:51;16.85;;;11.18;;
30133;SDS011;16946;49.984;10.672;2023-02-08T03:01:24;15.65;;;10.75;;
30133;SDS011;16946;49.984;10.672;2023-02-08T03:01:54;13.50;;;10.75;;
30133;SDS011;16946;49.984;10.672;2023-02-08T03:02:26;14.73;;;11.73;;
30133;SDS011;16946;49.984;10.672;2023-02-08T03:02:57;16.48;;;12.02;;
30133;SDS011;16946;49.984;10.672;2023-02-08T03:03:29;13.67;;;10.77;;
30133;SDS011;16946;49.984;10.672;2023-02-08T03:04:44;16.17;;;11.57;;
30133;SDS011;16946;49.984;10.672;2023-02-08T03:05:08;15.75;;;11.15;;
30133;SDS011;16946;49.984;10.672;2023-02-08T03:05:41;16.70;;;9.50;;
30133;SDS011;16946;49.984;10.672;2023-02-08T03:06:13;14.80;;;10.73;;
30133;SDS011;16946;49.984;10.672;2023-02-08T03:07:00;15.98;;;11.45;;
30133;SDS011;16946;49.984;10.672;2023-02-08T03:07:57;14.30;;;9.57;;
30133;SDS011;16946;49.984;10.672;2023-02-08T03:08:47;18.77;;;10.00;;
30133;SDS011;16946;49.984;10.672;2023-02-08T03:09:29;13.32;;;10.07;;
30133;SDS011;16946;49.984;10.672;2023-02-08T03:11:36;13.57;;;10.30;;
30133;SDS011;16946;49.984;10.672;2023-02-08T03:13:55;13.27;;;9.95;;
30133;SDS011;16946;49.984;10.672;2023-02-08T03:14:45;17.15;;;11.75;;
30133;SDS011;16946;49.984;10.672;2023-02-08T03:19:52;13.65;;;10.70;;
30133;SDS011;16946;49.984;10.672;2023-02-08T03:20:38;14.45;;;10.55;;
30133;SDS011;16946;49.984;10.672;2023-02-08T03:22:58;14.73;;;10.68;;
30133;SDS011;16946;49.984;10.672;2023-02-08T03:23:50;16.52;;;10.82;;
30133;SDS011;16946;49.984;10.672;2023-02-08T03:25:24;15.27;;;11.20;;
30133;SDS011;16946;49.984;10.672;2023-02-08T03:26:03;15.45;;;10.32;;
30133;SDS011;16946;49.984;10.672;2023-02-08T03:26:49;12.40;;;9.68;;
30133;SDS011;16946;49.984;10.672;2023-02-08T03:28:03;15.00;;;11.35;;
30133;SDS011;16946;49.984;10.672;2023-02-08T03:28:54;14.43;;;10.68;;
30133;SDS011;16946;49.984;10.672;2023-02-08T03:31:44;14.73;;;10.68;;
30133;SDS011;16946;49.984;10.672;2023-02-08T03:33:26;16.60;;;10.90;;
30133;SDS011;16946;49.984;10.672;2023-02-08T03:35:08;15.23;;;10.20;;
30133;SDS011;16946;49.984;10.672;2023-02-08T03:35:47;14.82;;;10.23;;
30133;SDS011;16946;49.984;10.672;2023-02-08T03:36:30;13.93;;;10.40;;
30133;SDS011;16946;49.984;10.672;2023-02-08T03:37:12;13.77;;;10.43;;
30133;SDS011;16946;49.984;10.672;2023-02-08T03:38:06;15.65;;;10.85;;
30133;SDS011;16946;49.984;10.672;2023-02-08T03:38:42;13.57;;;10.25;;
30133;SDS011;16946;49.984;10.672;2023-02-08T03:39:18;14.70;;;10.80;;
30133;SDS011;16946;49.984;10.672;2023-02-08T03:39:53;13.55;;;10.55;;
30133;SDS011;16946;49.984;10.672;2023-02-08T03:40:32;14.40;;;10.57;;
30133;SDS011;16946;49.984;10.672;2023-02-08T03:41:08;13.00;;;9.90;;
30133;SDS011;16946;49.984;10.672;2023-02-08T03:41:42;15.02;;;10.88;;
30133;SDS011;16946;49.984;10.672;2023-02-08T03:42:17;16.55;;;11.40;;
30133;SDS011;16946;49.984;10.672;2023-02-08T03:42:52;15.95;;;10.25;;
30133;SDS011;16946;49.984;10.672;2023-02-08T03:43:27;14.00;;;10.32;;
30133;SDS011;16946;49.984;10.672;2023-02-08T03:44:03;13.80;;;11.18;;
30133;SDS011;16946;49.984;10.672;2023-02-08T03:44:40;15.80;;;10.50;;
30133;SDS011;16946;49.984;10.672;2023-02-08T03:45:19;14.50;;;10.55;;
30133;SDS011;16946;49.984;10.672;2023-02-08T03:45:56;14.75;;;10.90;;
30133;SDS011;16946;49.984;10.672;2023-02-08T03:46:38;15.27;;;11.10;;
30133;SDS011;16946;49.984;10.672;2023-02-08T03:47:21;16.80;;;11.00;;
30133;SDS011;16946;49.984;10.672;2023-02-08T03:47:53;15.68;;;10.60;;
30133;SDS011;16946;49.984;10.672;2023-02-08T03:48:28;15.82;;;10.60;;
30133;SDS011;16946;49.984;10.672;2023-02-08T03:49:04;14.30;;;10.48;;
30133;SDS011;16946;49.984;10.672;2023-02-08T03:49:44;14.90;;;10.63;;
30133;SDS011;16946;49.984;10.672;2023-02-08T03:50:18;16.05;;;11.48;;
30133;SDS011;16946;49.984;10.672;2023-02-08T03:50:51;15.43;;;11.48;;
30133;SDS011;16946;49.984;10.672;2023-02-08T03:51:24;15.65;;;11.15;;
30133;SDS011;16946;49.984;10.672;2023-02-08T03:51:57;15.10;;;11.65;;
30133;SDS011;16946;49.984;10.672;2023-02-08T03:52:31;15.95;;;11.20;;
30133;SDS011;16946;49.984;10.672;2023-02-08T03:53:02;14.90;;;11.50;;